Time;durP1;ratioP1;P1;durP2;ratioP2;P2;SDS_P1;SDS_P2;PMS_P1;PMS_P2;Temp;Humidity;BMP_temperature;BMP_pressure;BME280_temperature;BME280_humidity;BME280_pressure;Samples;Min_cycle;Max_cycle;Signal;HPM_P1;HPM_P2
2023/09/10 00:02:31;;;;;;;13.95;9.98;;;16.50;99.90;;;;;;7301998;32;20199;-56
2023/09/10 00:06:32;;;;;;;12.90;10.43;;;16.50;99.90;;;;;;7307940;32;20511;-56
2023/09/10 00:10:34;;;;;;;13.38;9.82;;;16.50;99.90;;;;;;7315746;32;20115;-56
2023/09/10 00:14:37;;;;;;;15.48;11.07;;;16.40;99.90;;;;;;7312933;32;20112;-55
2023/09/10 00:18:38;;;;;;;13.95;11.05;;;16.40;99.90;;;;;;7300623;32;20552;-57
2023/09/10 00:22:43;;;;;;;12.63;10.40;;;16.40;99.90;;;;;;7309716;32;20124;-55
2023/09/10 00:26:45;;;;;;;14.60;11.45;;;16.40;99.90;;;;;;7311158;32;20095;-56
2023/09/10 00:30:54;;;;;;;12.07;10.38;;;16.30;99.90;;;;;;7313396;32;20103;-55
2023/09/10 00:34:55;;;;;;;12.02;10.65;;;16.30;99.90;;;;;;7296507;32;20181;-55
2023/09/10 00:38:57;;;;;;;13.07;11.15;;;16.30;99.90;;;;;;7290388;32;20135;-55
2023/09/10 00:42:59;;;;;;;13.82;11.10;;;16.30;99.90;;;;;;7311461;32;20254;-56
2023/09/10 00:47:02;;;;;;;15.88;10.77;;;16.30;99.90;;;;;;7303775;32;20516;-55
2023/09/10 00:51:04;;;;;;;17.40;10.00;;;16.30;99.90;;;;;;7309222;32;20100;-56
2023/09/10 00:55:06;;;;;;;13.10;10.82;;;16.20;99.90;;;;;;7309411;32;20103;-56
2023/09/10 00:59:08;;;;;;;14.50;10.95;;;16.20;99.90;;;;;;7309639;32;20100;-56
2023/09/10 01:03:10;;;;;;;12.32;10.38;;;16.20;99.90;;;;;;7309699;32;20119;-56
2023/09/10 01:07:12;;;;;;;13.57;11.38;;;16.10;99.90;;;;;;7304671;32;20572;-57
2023/09/10 01:11:27;;;;;;;18.37;10.63;;;16.00;99.90;;;;;;7306831;32;20246;-56
2023/09/10 01:15:34;;;;;;;14.00;10.52;;;16.00;99.90;;;;;;7304528;32;20213;-55
2023/09/10 01:19:50;;;;;;;13.77;10.75;;;15.90;99.90;;;;;;7305805;32;20160;-56
2023/09/10 01:24:07;;;;;;;17.80;10.43;;;15.90;99.90;;;;;;7308596;32;20193;-55
2023/09/10 01:28:09;;;;;;;12.43;10.47;;;15.90;99.90;;;;;;7304035;32;20819;-56
2023/09/10 01:32:26;;;;;;;17.58;11.15;;;15.80;99.90;;;;;;7301888;32;20247;-56
2023/09/10 01:36:41;;;;;;;14.18;10.65;;;15.80;99.90;;;;;;7302717;32;20249;-55
2023/09/10 01:40:50;;;;;;;14.82;11.10;;;15.80;99.90;;;;;;7301249;32;20096;-56
2023/09/10 01:44:53;;;;;;;18.00;10.70;;;15.80;99.90;;;;;;7303238;32;20115;-56
2023/09/10 01:48:54;;;;;;;13.57;10.88;;;15.70;99.90;;;;;;7314053;32;20167;-55
2023/09/10 01:53:00;;;;;;;15.13;10.52;;;15.70;99.90;;;;;;7307149;32;20104;-55
2023/09/10 01:57:03;;;;;;;19.43;10.80;;;15.60;99.90;;;;;;7307506;32;20482;-56
2023/09/10 02:01:06;;;;;;;18.05;11.98;;;15.60;99.90;;;;;;7307814;32;20101;-55
2023/09/10 02:05:08;;;;;;;15.43;11.10;;;15.50;99.90;;;;;;7297990;32;20104;-56
2023/09/10 02:09:10;;;;;;;13.38;10.77;;;15.50;99.90;;;;;;7298720;32;20270;-56
2023/09/10 02:13:11;;;;;;;14.52;10.75;;;15.50;99.90;;;;;;7305505;32;20107;-56
2023/09/10 02:17:14;;;;;;;13.60;10.20;;;15.40;99.90;;;;;;7286242;32;20282;-56
2023/09/10 02:21:16;;;;;;;13.73;10.77;;;15.40;99.90;;;;;;7303896;32;20122;-56
2023/09/10 02:25:17;;;;;;;14.55;11.30;;;15.30;99.90;;;;;;7304867;32;20108;-55
2023/09/10 02:29:19;;;;;;;12.48;10.65;;;15.30;99.90;;;;;;7295483;32;20534;-55
2023/09/10 02:33:23;;;;;;;14.90;11.35;;;15.30;99.90;;;;;;7302443;32;20658;-56
2023/09/10 02:37:25;;;;;;;12.88;10.35;;;15.30;99.90;;;;;;7306232;32;20245;-56
2023/09/10 02:41:26;;;;;;;11.32;9.95;;;15.30;99.90;;;;;;7296193;32;20099;-56
2023/09/10 02:45:28;;;;;;;14.73;10.45;;;15.20;99.90;;;;;;7309545;32;20181;-56
2023/09/10 02:49:30;;;;;;;12.23;10.93;;;15.20;99.90;;;;;;7287262;32;20217;-56
2023/09/10 02:53:32;;;;;;;12.73;10.27;;;15.10;99.90;;;;;;7304030;32;20142;-56
2023/09/10 02:57:33;;;;;;;13.32;10.27;;;15.20;99.90;;;;;;7303672;32;20518;-55
2023/09/10 03:01:36;;;;;;;13.65;10.75;;;15.20;99.90;;;;;;7307823;32;20125;-55
2023/09/10 03:05:38;;;;;;;16.27;10.52;;;15.20;99.90;;;;;;7304821;32;20478;-57
2023/09/10 03:09:39;;;;;;;13.73;10.07;;;15.20;99.90;;;;;;7299982;32;20197;-56
2023/09/10 03:13:41;;;;;;;17.98;11.00;;;15.20;99.90;;;;;;7306679;32;20486;-55
2023/09/10 03:17:43;;;;;;;12.48;10.40;;;15.20;99.90;;;;;;7306966;32;20414;-56
2023/09/10 03:21:45;;;;;;;17.08;10.38;;;15.20;99.90;;;;;;7301194;32;20116;-55
2023/09/10 03:25:46;;;;;;;14.52;10.90;;;15.10;99.90;;;;;;7308660;32;20162;-56
2023/09/10 03:29:48;;;;;;;12.35;10.13;;;15.10;99.90;;;;;;7306728;32;20177;-57
2023/09/10 03:33:50;;;;;;;12.70;11.05;;;15.10;99.90;;;;;;7310858;32;20199;-55
2023/09/10 03:37:52;;;;;;;18.15;11.50;;;15.00;99.90;;;;;;7310885;32;20153;-56
2023/09/10 03:41:54;;;;;;;12.95;10.82;;;15.00;99.90;;;;;;7299112;32;20115;-56
2023/09/10 03:45:56;;;;;;;14.60;11.40;;;15.00;99.90;;;;;;7311527;32;20269;-56
2023/09/10 03:49:57;;;;;;;15.88;10.95;;;15.10;99.90;;;;;;7304258;32;20160;-56
2023/09/10 03:53:59;;;;;;;18.58;11.85;;;15.00;99.90;;;;;;7305909;32;20533;-55
2023/09/10 03:58:01;;;;;;;14.40;12.20;;;15.00;99.90;;;;;;7304085;32;20150;-55
2023/09/10 04:02:03;;;;;;;13.60;10.60;;;15.00;99.90;;;;;;7295508;32;20099;-55
2023/09/10 04:06:05;;;;;;;16.08;12.15;;;15.00;99.90;;;;;;7302775;32;20423;-55
2023/09/10 04:10:08;;;;;;;14.95;11.90;;;15.00;99.90;;;;;;7302738;32;20240;-55
2023/09/10 04:14:10;;;;;;;18.25;12.13;;;15.00;99.90;;;;;;7311902;32;20172;-54
2023/09/10 04:18:11;;;;;;;15.25;10.52;;;15.00;99.90;;;;;;7313529;32;20127;-55
2023/09/10 04:22:14;;;;;;;15.45;12.60;;;14.90;99.90;;;;;;7312741;32;20112;-54
2023/09/10 04:26:16;;;;;;;17.35;11.93;;;15.00;99.90;;;;;;7314234;32;20116;-57
2023/09/10 04:30:18;;;;;;;12.02;10.70;;;14.90;99.90;;;;;;7312264;32;20107;-55
2023/09/10 04:34:19;;;;;;;13.00;11.63;;;15.00;99.90;;;;;;7313291;32;20251;-55
2023/09/10 04:38:21;;;;;;;18.40;11.50;;;14.90;99.90;;;;;;7309673;32;20128;-54
2023/09/10 04:42:23;;;;;;;13.38;11.60;;;14.90;99.90;;;;;;7301241;32;20254;-55
2023/09/10 04:46:27;;;;;;;16.15;12.45;;;14.90;99.90;;;;;;7310446;32;20178;-55
2023/09/10 04:50:29;;;;;;;13.68;11.98;;;14.90;99.90;;;;;;7312388;32;20100;-55
2023/09/10 04:54:30;;;;;;;16.15;11.40;;;15.00;99.90;;;;;;7306513;32;20311;-55
2023/09/10 04:58:32;;;;;;;14.20;11.57;;;15.00;99.90;;;;;;7292855;32;20108;-55
2023/09/10 05:02:34;;;;;;;12.80;10.57;;;14.90;99.90;;;;;;7297929;32;20112;-55
2023/09/10 05:06:36;;;;;;;13.75;10.93;;;14.90;99.90;;;;;;7307313;32;20467;-55
2023/09/10 05:10:38;;;;;;;15.85;12.30;;;14.90;99.90;;;;;;7300210;32;20130;-56
2023/09/10 05:14:40;;;;;;;14.00;11.60;;;14.80;99.90;;;;;;7297854;32;20135;-55
2023/09/10 05:18:42;;;;;;;12.52;11.18;;;14.90;99.90;;;;;;7307451;32;20119;-56
2023/09/10 05:22:43;;;;;;;17.08;11.63;;;14.90;99.90;;;;;;7287229;32;20096;-55
2023/09/10 05:26:45;;;;;;;13.73;12.25;;;15.00;99.90;;;;;;7302163;32;20096;-56
2023/09/10 05:30:47;;;;;;;15.50;12.77;;;15.00;99.90;;;;;;7297818;32;20104;-56
2023/09/10 05:34:49;;;;;;;15.98;13.00;;;15.10;99.90;;;;;;7301039;32;20130;-57
2023/09/10 05:38:52;;;;;;;19.90;13.55;;;15.10;99.90;;;;;;7304555;32;20706;-56
2023/09/10 05:42:54;;;;;;;14.40;11.88;;;15.20;99.90;;;;;;7308151;32;20119;-56
2023/09/10 05:46:55;;;;;;;13.95;11.05;;;15.30;99.90;;;;;;7308056;32;20130;-56
2023/09/10 05:50:57;;;;;;;12.40;11.20;;;15.30;99.90;;;;;;7300048;32;20602;-57
2023/09/10 05:54:59;;;;;;;12.05;10.38;;;15.40;99.90;;;;;;7305390;32;20153;-57
2023/09/10 05:59:01;;;;;;;15.88;12.98;;;15.50;99.90;;;;;;7304018;32;20631;-54
2023/09/10 06:03:04;;;;;;;14.05;12.52;;;15.60;99.90;;;;;;7301215;32;20317;-54
2023/09/10 06:07:05;;;;;;;13.00;11.10;;;15.60;99.90;;;;;;7298670;32;20100;-54
2023/09/10 06:11:07;;;;;;;13.38;12.02;;;15.70;99.90;;;;;;7296587;32;20124;-55
2023/09/10 06:15:09;;;;;;;15.00;12.37;;;15.80;99.90;;;;;;7297963;32;20583;-54
2023/09/10 06:19:11;;;;;;;14.13;12.63;;;15.90;99.90;;;;;;7299742;32;20265;-54
2023/09/10 06:23:12;;;;;;;15.75;11.60;;;15.90;99.90;;;;;;7299992;32;20218;-55
2023/09/10 06:27:14;;;;;;;17.25;12.82;;;16.10;99.90;;;;;;7294030;32;20134;-53
2023/09/10 06:31:16;;;;;;;14.77;12.43;;;16.20;99.90;;;;;;7306280;32;20227;-56
2023/09/10 06:35:18;;;;;;;15.25;11.73;;;16.30;99.90;;;;;;7308347;32;20161;-55
2023/09/10 06:39:20;;;;;;;13.62;11.63;;;16.50;99.90;;;;;;7304143;32;20103;-56
2023/09/10 06:43:22;;;;;;;13.95;12.40;;;16.60;99.90;;;;;;7312749;32;20564;-55
2023/09/10 06:47:23;;;;;;;18.87;16.98;;;16.70;99.90;;;;;;7308954;32;20477;-54
2023/09/10 06:51:27;;;;;;;13.40;12.00;;;16.80;99.90;;;;;;7301424;32;20132;-56
2023/09/10 06:55:29;;;;;;;16.83;15.15;;;17.00;99.90;;;;;;7312352;32;20107;-56
2023/09/10 06:59:30;;;;;;;17.62;12.43;;;17.20;99.90;;;;;;7300586;32;20108;-55
2023/09/10 07:03:33;;;;;;;13.30;11.98;;;17.30;99.90;;;;;;7299271;32;20120;-56
2023/09/10 07:07:35;;;;;;;15.00;12.82;;;17.50;99.90;;;;;;7306450;32;20105;-56
2023/09/10 07:11:37;;;;;;;14.60;12.43;;;17.70;99.90;;;;;;7310484;32;20699;-56
2023/09/10 07:15:39;;;;;;;17.98;13.62;;;17.90;99.90;;;;;;7315488;32;20862;-56
2023/09/10 07:19:41;;;;;;;14.57;12.50;;;18.10;99.90;;;;;;7303565;32;20284;-56
2023/09/10 07:23:43;;;;;;;18.67;13.18;;;18.40;99.90;;;;;;7306303;32;20391;-56
2023/09/10 07:27:44;;;;;;;25.62;13.45;;;18.60;99.90;;;;;;7310278;32;20107;-56
2023/09/10 07:31:47;;;;;;;20.58;12.43;;;18.70;99.90;;;;;;7309895;32;20477;-56
2023/09/10 07:35:49;;;;;;;17.95;11.82;;;18.90;99.90;;;;;;7314889;32;20111;-57
2023/09/10 07:39:51;;;;;;;22.60;11.75;;;19.10;99.90;;;;;;7311648;32;20199;-56
2023/09/10 07:43:53;;;;;;;18.20;11.25;;;19.30;99.90;;;;;;7309662;32;20569;-56
2023/09/10 07:47:56;;;;;;;14.55;10.52;;;19.40;99.90;;;;;;7308666;32;20256;-56
2023/09/10 07:51:58;;;;;;;18.60;10.70;;;19.70;99.90;;;;;;7318121;32;20237;-56
2023/09/10 07:56:00;;;;;;;14.02;9.38;;;19.90;99.90;;;;;;7313004;32;20426;-56
2023/09/10 08:00:02;;;;;;;18.50;10.00;;;20.20;99.90;;;;;;7317246;32;20244;-57
2023/09/10 08:04:04;;;;;;;14.35;9.77;;;20.30;99.90;;;;;;7308612;32;20123;-56
2023/09/10 08:08:06;;;;;;;17.10;8.18;;;20.50;99.90;;;;;;7312317;32;20478;-56
2023/09/10 08:12:07;;;;;;;11.82;8.27;;;20.70;99.90;;;;;;7312940;32;20211;-57
2023/09/10 08:16:13;;;;;;;18.95;9.43;;;20.90;99.90;;;;;;7310767;32;20119;-57
2023/09/10 08:20:15;;;;;;;17.25;8.45;;;21.10;99.90;;;;;;7306223;32;20215;-56
2023/09/10 08:24:17;;;;;;;16.15;7.20;;;21.40;99.90;;;;;;7307818;32;20099;-57
2023/09/10 08:28:18;;;;;;;15.32;7.95;;;21.60;99.90;;;;;;7313080;32;20123;-57
2023/09/10 08:32:20;;;;;;;14.85;7.50;;;21.90;99.90;;;;;;7301980;32;20161;-57
2023/09/10 08:36:22;;;;;;;11.80;7.30;;;22.10;99.90;;;;;;7305573;32;20897;-56
2023/09/10 08:40:24;;;;;;;11.98;6.53;;;22.50;99.90;;;;;;7301379;32;20202;-57
2023/09/10 08:44:29;;;;;;;15.38;6.05;;;23.30;99.90;;;;;;7296950;32;20206;-56
2023/09/10 08:48:32;;;;;;;11.55;5.68;;;24.30;99.90;;;;;;7302620;32;20179;-58
2023/09/10 08:52:39;;;;;;;10.77;5.28;;;25.60;99.90;;;;;;7296552;32;20208;-56
2023/09/10 08:56:43;;;;;;;9.98;5.28;;;25.60;99.90;;;;;;7298143;32;20506;-56
2023/09/10 09:00:46;;;;;;;10.82;5.80;;;25.50;99.90;;;;;;7305674;32;20153;-56
2023/09/10 09:04:48;;;;;;;11.80;6.40;;;25.50;99.90;;;;;;7302374;32;20899;-57
2023/09/10 09:08:51;;;;;;;13.82;6.20;;;25.70;99.90;;;;;;7297747;32;20187;-58
2023/09/10 09:13:01;;;;;;;14.80;6.07;;;25.80;99.90;;;;;;7297566;32;20100;-56
2023/09/10 09:17:05;;;;;;;11.75;5.95;;;26.00;99.90;;;;;;7300578;32;20207;-56
2023/09/10 09:21:20;;;;;;;11.60;5.47;;;26.30;99.90;;;;;;7306193;32;20166;-56
2023/09/10 09:25:22;;;;;;;12.10;5.87;;;27.20;99.90;;;;;;7289340;32;20198;-55
2023/09/10 09:29:24;;;;;;;13.20;7.60;;;28.20;99.90;;;;;;7310318;32;20095;-58
2023/09/10 09:33:26;;;;;;;10.57;6.35;;;28.40;99.90;;;;;;7302685;32;20130;-57
2023/09/10 09:37:31;;;;;;;16.87;5.62;;;29.40;99.90;;;;;;7311311;32;20104;-59
2023/09/10 09:41:34;;;;;;;9.57;5.50;;;30.00;99.90;;;;;;7298400;32;20195;-57
2023/09/10 09:45:36;;;;;;;10.27;5.05;;;31.20;99.90;;;;;;7299004;32;20214;-58
2023/09/10 09:49:44;;;;;;;15.00;5.12;;;31.10;99.90;;;;;;7302594;32;20463;-54
2023/09/10 09:53:46;;;;;;;13.15;5.43;;;31.60;99.90;;;;;;7302847;32;20529;-57
2023/09/10 09:57:49;;;;;;;11.75;5.25;;;32.10;99.90;;;;;;7309647;32;20126;-57
2023/09/10 10:01:51;;;;;;;11.23;5.05;;;32.90;99.90;;;;;;7306008;32;20138;-57
2023/09/10 10:05:54;;;;;;;10.05;4.70;;;34.10;99.90;;;;;;7298668;32;20112;-58
2023/09/10 10:09:57;;;;;;;7.68;4.95;;;34.90;99.90;;;;;;7286518;32;20255;-57
2023/09/10 10:14:00;;;;;;;15.00;5.43;;;35.60;98.40;;;;;;7299991;32;20219;-58
2023/09/10 10:18:03;;;;;;;8.98;4.28;;;35.30;96.90;;;;;;7306652;32;20127;-58
2023/09/10 10:22:07;;;;;;;9.23;4.93;;;35.10;99.90;;;;;;7303089;32;20104;-57
2023/09/10 10:26:09;;;;;;;14.48;6.18;;;35.20;98.40;;;;;;7305146;32;20180;-58
2023/09/10 10:30:12;;;;;;;9.73;4.57;;;35.10;98.80;;;;;;7309095;32;20132;-55
2023/09/10 10:34:22;;;;;;;8.70;4.53;;;34.90;97.40;;;;;;7298773;32;20551;-57
2023/09/10 10:38:29;;;;;;;11.27;4.28;;;34.80;97.30;;;;;;7292904;32;20126;-57
2023/09/10 10:43:01;;;;;;;9.60;4.87;;;34.40;94.80;;;;;;7306251;32;20765;-57
2023/09/10 10:47:13;;;;;;;9.82;4.32;;;34.30;97.60;;;;;;7291271;32;20585;-57
2023/09/10 10:51:17;;;;;;;10.25;4.40;;;34.10;95.20;;;;;;7312716;32;20107;-57
2023/09/10 10:55:19;;;;;;;13.82;4.60;;;34.00;97.00;;;;;;7296508;32;20100;-58
2023/09/10 10:59:21;;;;;;;13.30;4.65;;;34.30;96.00;;;;;;7303420;32;20146;-58
2023/09/10 11:03:24;;;;;;;10.93;4.72;;;34.80;95.70;;;;;;7306761;32;20182;-58
2023/09/10 11:07:28;;;;;;;11.63;4.95;;;35.10;95.20;;;;;;7296557;32;20100;-57
2023/09/10 11:11:39;;;;;;;10.98;4.53;;;34.90;94.30;;;;;;7297198;32;20114;-57
2023/09/10 11:16:03;;;;;;;9.02;4.72;;;34.70;94.60;;;;;;7300331;32;20116;-58
2023/09/10 11:20:06;;;;;;;11.10;3.95;;;34.80;93.30;;;;;;7293913;32;20115;-57
2023/09/10 11:24:08;;;;;;;11.98;4.53;;;34.30;95.30;;;;;;7299667;32;20111;-57
2023/09/10 11:28:45;;;;;;;11.38;4.70;;;33.80;95.20;;;;;;7303377;32;20128;-57
2023/09/10 11:32:48;;;;;;;10.57;4.35;;;33.10;95.00;;;;;;7298923;32;20099;-58
2023/09/10 11:36:55;;;;;;;9.38;4.65;;;32.70;98.50;;;;;;7303841;32;20210;-57
2023/09/10 11:40:57;;;;;;;14.50;5.00;;;32.00;97.40;;;;;;7301050;32;20154;-57
2023/09/10 11:44:59;;;;;;;10.85;4.75;;;31.70;99.20;;;;;;7308978;32;20122;-58
2023/09/10 11:49:01;;;;;;;6.85;4.35;;;31.50;97.90;;;;;;7305102;32;20119;-57
2023/09/10 11:53:03;;;;;;;11.38;4.47;;;31.50;99.40;;;;;;7302214;32;20514;-58
2023/09/10 11:57:05;;;;;;;12.35;3.90;;;31.40;99.20;;;;;;7300323;32;20108;-57
2023/09/10 12:01:07;;;;;;;9.48;4.45;;;31.30;99.90;;;;;;7302526;32;20462;-56
2023/09/10 12:05:09;;;;;;;9.70;4.55;;;31.40;99.90;;;;;;7302358;32;20122;-57
2023/09/10 12:09:13;;;;;;;8.10;4.07;;;31.00;99.80;;;;;;7302058;32;20122;-57
2023/09/10 12:13:15;;;;;;;10.48;4.10;;;31.00;99.90;;;;;;7306237;32;20111;-57
2023/09/10 12:17:17;;;;;;;8.93;4.40;;;30.90;99.90;;;;;;7301445;32;20522;-58
2023/09/10 12:21:19;;;;;;;10.38;4.20;;;30.80;99.90;;;;;;7306808;32;20237;-58
2023/09/10 12:25:21;;;;;;;10.13;4.60;;;30.60;99.90;;;;;;7304825;32;20173;-57
2023/09/10 12:29:23;;;;;;;11.00;4.30;;;30.50;99.90;;;;;;7300279;32;20533;-56
2023/09/10 12:33:24;;;;;;;11.10;4.40;;;30.40;99.90;;;;;;7304466;32;20254;-57
2023/09/10 12:37:26;;;;;;;7.00;3.90;;;30.30;99.90;;;;;;7297489;32;20518;-56
2023/09/10 12:41:28;;;;;;;11.07;4.78;;;30.30;99.90;;;;;;7303972;32;20146;-56
2023/09/10 12:45:30;;;;;;;12.73;4.78;;;30.30;99.90;;;;;;7288562;32;20107;-56
2023/09/10 12:49:32;;;;;;;9.23;5.22;;;30.20;99.90;;;;;;7302049;32;20183;-57
2023/09/10 12:53:37;;;;;;;10.40;4.40;;;30.20;99.90;;;;;;7300188;32;20239;-57
2023/09/10 12:57:39;;;;;;;9.45;4.40;;;30.20;99.90;;;;;;7301393;32;20154;-57
2023/09/10 13:01:41;;;;;;;11.23;4.37;;;30.10;99.90;;;;;;7304473;32;20095;-55
2023/09/10 13:05:43;;;;;;;11.52;4.72;;;30.30;99.90;;;;;;7298994;32;20198;-56
2023/09/10 13:09:45;;;;;;;10.95;4.35;;;30.30;99.90;;;;;;7295091;32;20174;-57
2023/09/10 13:13:47;;;;;;;11.60;4.37;;;30.50;99.90;;;;;;7297003;32;20108;-57
2023/09/10 13:17:48;;;;;;;11.23;5.28;;;30.40;99.90;;;;;;7299520;32;20602;-57
2023/09/10 13:21:50;;;;;;;10.15;5.07;;;30.30;99.90;;;;;;7302414;32;20169;-56
2023/09/10 13:25:52;;;;;;;8.45;4.47;;;30.50;99.90;;;;;;7293974;32;20157;-57
2023/09/10 13:29:54;;;;;;;12.02;4.95;;;30.50;99.90;;;;;;7292888;32;20302;-58
2023/09/10 13:33:55;;;;;;;8.95;4.87;;;30.20;99.90;;;;;;7298280;32;20133;-57
2023/09/10 13:38:00;;;;;;;13.73;5.30;;;30.30;99.90;;;;;;7298233;32;20174;-57
2023/09/10 13:42:02;;;;;;;46.75;30.45;;;30.30;99.90;;;;;;7299776;32;20099;-57
2023/09/10 13:46:04;;;;;;;9.38;5.12;;;30.30;99.90;;;;;;7302502;32;20175;-58
2023/09/10 13:50:07;;;;;;;10.27;5.30;;;30.60;99.90;;;;;;7296177;32;20213;-57
2023/09/10 13:54:09;;;;;;;11.85;4.53;;;30.50;99.90;;;;;;7302169;32;20099;-57
2023/09/10 13:58:10;;;;;;;11.12;5.43;;;30.20;99.90;;;;;;7302619;32;20260;-57
2023/09/10 14:02:12;;;;;;;19.15;11.43;;;30.30;99.90;;;;;;7287138;32;20126;-55
2023/09/10 14:06:14;;;;;;;34.08;20.70;;;30.00;99.90;;;;;;7299519;32;20186;-57
2023/09/10 14:10:16;;;;;;;12.32;6.87;;;29.50;99.90;;;;;;7292311;32;20179;-57
2023/09/10 14:14:17;;;;;;;11.12;5.95;;;29.40;99.90;;;;;;7295872;32;20140;-57
2023/09/10 14:18:19;;;;;;;12.98;6.28;;;29.70;99.90;;;;;;7285254;32;20267;-58
2023/09/10 14:22:21;;;;;;;11.95;5.57;;;29.80;99.90;;;;;;7296869;32;20127;-58
2023/09/10 14:26:23;;;;;;;11.07;4.97;;;30.00;99.90;;;;;;7299938;32;20524;-58
2023/09/10 14:30:25;;;;;;;12.15;5.15;;;30.00;99.90;;;;;;7297484;32;20305;-58
2023/09/10 14:34:26;;;;;;;12.95;5.93;;;30.10;99.90;;;;;;7300405;32;20122;-58
2023/09/10 14:38:28;;;;;;;9.38;4.70;;;30.00;99.90;;;;;;7300430;32;20213;-58
2023/09/10 14:42:31;;;;;;;14.85;5.15;;;29.90;99.90;;;;;;7293784;32;20108;-57
2023/09/10 14:46:34;;;;;;;11.50;4.80;;;29.90;99.90;;;;;;7299133;32;20146;-57
2023/09/10 14:50:36;;;;;;;14.15;4.50;;;30.00;99.90;;;;;;7295766;32;20526;-57
2023/09/10 14:54:38;;;;;;;12.43;4.75;;;29.80;99.90;;;;;;7294774;32;20270;-57
2023/09/10 14:58:40;;;;;;;12.20;5.37;;;29.60;99.90;;;;;;7303117;32;20895;-58
2023/09/10 15:02:41;;;;;;;10.80;4.50;;;29.70;99.90;;;;;;7299635;32;20104;-57
2023/09/10 15:06:44;;;;;;;10.20;4.68;;;29.70;99.90;;;;;;7298689;32;20096;-58
2023/09/10 15:10:46;;;;;;;11.02;4.37;;;29.60;99.90;;;;;;7289309;32;20108;-58
2023/09/10 15:14:48;;;;;;;10.35;4.93;;;29.50;99.90;;;;;;7298137;32;20238;-58
2023/09/10 15:18:50;;;;;;;12.00;5.20;;;29.30;99.90;;;;;;7305034;32;20120;-58
2023/09/10 15:22:51;;;;;;;9.48;4.60;;;29.00;99.90;;;;;;7296588;32;20513;-58
2023/09/10 15:26:53;;;;;;;12.50;4.82;;;29.20;99.90;;;;;;7298413;32;20105;-57
2023/09/10 15:30:55;;;;;;;12.88;5.07;;;29.20;99.90;;;;;;7304593;32;20312;-58
2023/09/10 15:34:56;;;;;;;10.98;4.93;;;29.20;99.90;;;;;;7307364;32;20505;-57
2023/09/10 15:38:58;;;;;;;11.07;5.37;;;29.10;99.90;;;;;;7306562;32;20122;-57
2023/09/10 15:43:00;;;;;;;12.25;5.12;;;28.90;99.90;;;;;;7308125;32;20153;-57
2023/09/10 15:47:03;;;;;;;8.55;5.30;;;28.70;99.90;;;;;;7306909;32;20099;-57
2023/09/10 15:51:05;;;;;;;10.63;5.22;;;28.70;99.90;;;;;;7309780;32;20190;-57
2023/09/10 15:55:07;;;;;;;8.90;5.47;;;28.60;99.90;;;;;;7300207;32;20100;-57
2023/09/10 15:59:09;;;;;;;10.43;5.75;;;28.40;99.90;;;;;;7298136;32;20213;-56
2023/09/10 16:03:11;;;;;;;11.15;6.28;;;28.30;99.90;;;;;;7296921;32;20636;-57
2023/09/10 16:07:13;;;;;;;9.82;6.07;;;28.10;99.90;;;;;;7303302;32;20167;-56
2023/09/10 16:11:14;;;;;;;10.55;6.28;;;28.10;99.90;;;;;;7294095;32;20255;-56
2023/09/10 16:15:16;;;;;;;10.32;6.03;;;28.00;99.90;;;;;;7296138;32;20122;-56
2023/09/10 16:19:18;;;;;;;22.55;7.68;;;28.00;99.90;;;;;;7303649;32;20831;-57
2023/09/10 16:23:20;;;;;;;15.20;8.85;;;27.80;99.90;;;;;;7296833;32;20655;-57
2023/09/10 16:27:22;;;;;;;14.50;9.63;;;27.70;99.90;;;;;;7301470;32;20221;-57
2023/09/10 16:31:24;;;;;;;14.13;9.43;;;27.70;99.90;;;;;;7297613;32;20112;-57
2023/09/10 16:35:26;;;;;;;11.23;6.95;;;27.60;99.90;;;;;;7303421;32;20186;-57
2023/09/10 16:39:28;;;;;;;10.43;7.07;;;27.50;99.90;;;;;;7305068;32;20176;-57
2023/09/10 16:43:29;;;;;;;12.20;7.37;;;27.40;99.90;;;;;;7303324;32;20169;-58
2023/09/10 16:47:31;;;;;;;16.42;7.65;;;27.20;99.90;;;;;;7302522;32;20130;-58
2023/09/10 16:51:33;;;;;;;11.75;7.35;;;27.00;99.90;;;;;;7294117;32;20111;-57
2023/09/10 16:55:36;;;;;;;13.82;6.70;;;27.00;99.90;;;;;;7301449;32;20293;-58
2023/09/10 16:59:37;;;;;;;11.27;6.97;;;26.80;99.90;;;;;;7301546;32;20260;-57
2023/09/10 17:03:42;;;;;;;12.95;7.37;;;26.70;99.90;;;;;;7303727;32;20107;-57
2023/09/10 17:07:45;;;;;;;15.32;7.70;;;26.50;99.90;;;;;;7302239;32;20773;-58
2023/09/10 17:11:46;;;;;;;12.37;7.47;;;26.40;99.90;;;;;;7308595;32;20108;-57
2023/09/10 17:15:50;;;;;;;12.37;7.55;;;26.20;99.90;;;;;;7303017;32;20116;-57
2023/09/10 17:19:52;;;;;;;12.35;8.43;;;26.10;99.90;;;;;;7302674;32;20115;-57
2023/09/10 17:23:54;;;;;;;10.88;8.52;;;25.90;99.90;;;;;;7302006;32;20565;-57
2023/09/10 17:27:57;;;;;;;15.13;8.38;;;25.60;99.90;;;;;;7301926;32;20203;-57
2023/09/10 17:31:59;;;;;;;14.85;8.93;;;25.40;99.90;;;;;;7300411;32;20255;-58
2023/09/10 17:36:01;;;;;;;13.75;8.90;;;25.30;99.90;;;;;;7304731;32;20161;-58
2023/09/10 17:40:02;;;;;;;13.35;8.90;;;25.10;99.90;;;;;;7299198;32;20143;-57
2023/09/10 17:44:04;;;;;;;11.27;8.43;;;24.90;99.90;;;;;;7300648;32;20458;-57
2023/09/10 17:48:06;;;;;;;11.32;8.23;;;24.60;99.90;;;;;;7292392;32;20273;-58
2023/09/10 17:52:08;;;;;;;11.48;8.90;;;24.50;99.90;;;;;;7290909;32;20237;-58
2023/09/10 17:56:10;;;;;;;14.77;9.38;;;24.40;99.90;;;;;;7301132;32;20173;-58
2023/09/10 18:00:12;;;;;;;13.30;9.50;;;24.10;99.90;;;;;;7300888;32;20663;-58
2023/09/10 18:04:14;;;;;;;15.40;9.40;;;24.00;99.90;;;;;;7299410;32;20107;-58
2023/09/10 18:08:16;;;;;;;16.80;9.23;;;23.80;99.90;;;;;;7299558;32;20269;-58
2023/09/10 18:12:18;;;;;;;18.10;10.30;;;23.60;99.90;;;;;;7295608;32;20169;-58
2023/09/10 18:16:20;;;;;;;11.52;9.45;;;23.40;99.90;;;;;;7299067;32;20199;-57
2023/09/10 18:20:22;;;;;;;11.95;9.88;;;23.20;99.90;;;;;;7295198;32;20108;-56
2023/09/10 18:24:24;;;;;;;16.80;9.98;;;23.10;99.90;;;;;;7293259;32;20122;-56
2023/09/10 18:28:25;;;;;;;11.63;10.45;;;22.90;99.90;;;;;;7300636;32;20231;-56
2023/09/10 18:32:27;;;;;;;11.12;10.02;;;22.70;99.90;;;;;;7302502;32;20984;-57
2023/09/10 18:36:29;;;;;;;18.40;10.45;;;22.70;99.90;;;;;;7296228;32;20283;-57
2023/09/10 18:40:31;;;;;;;15.55;10.00;;;22.60;99.90;;;;;;7298466;32;20266;-58
2023/09/10 18:44:33;;;;;;;14.55;10.30;;;22.50;99.90;;;;;;7298892;32;20270;-58
2023/09/10 18:48:35;;;;;;;18.75;11.20;;;22.40;99.90;;;;;;7298709;32;20276;-58
2023/09/10 18:52:38;;;;;;;12.93;9.52;;;22.20;99.90;;;;;;7299702;32;20135;-58
2023/09/10 18:56:39;;;;;;;14.68;10.75;;;22.10;99.90;;;;;;7301290;32;20104;-56
2023/09/10 19:00:41;;;;;;;13.85;10.23;;;21.90;99.90;;;;;;7300304;32;20213;-55
2023/09/10 19:04:43;;;;;;;17.05;10.20;;;21.80;99.90;;;;;;7299134;32;20755;-57
2023/09/10 19:08:45;;;;;;;12.30;10.52;;;21.70;99.90;;;;;;7301510;32;20111;-57
2023/09/10 19:12:46;;;;;;;12.25;10.55;;;21.70;99.90;;;;;;7302200;32;20560;-55
2023/09/10 19:16:49;;;;;;;13.65;10.35;;;21.60;99.90;;;;;;7298121;32;20265;-56
2023/09/10 19:20:53;;;;;;;15.75;10.80;;;21.40;99.90;;;;;;7296691;32;20114;-56
2023/09/10 19:24:54;;;;;;;17.20;10.45;;;21.30;99.90;;;;;;7297556;32;20099;-56
2023/09/10 19:28:56;;;;;;;15.07;11.50;;;21.30;99.90;;;;;;7300410;32;20116;-57
2023/09/10 19:32:58;;;;;;;13.40;10.57;;;21.20;99.90;;;;;;7297709;32;20091;-58
2023/09/10 19:37:00;;;;;;;16.70;10.77;;;21.20;99.90;;;;;;7298307;32;20525;-56
2023/09/10 19:41:02;;;;;;;14.70;10.35;;;21.10;99.90;;;;;;7298077;32;20108;-55
2023/09/10 19:45:04;;;;;;;16.95;10.32;;;21.10;99.90;;;;;;7288150;32;20118;-54
2023/09/10 19:49:06;;;;;;;14.55;10.98;;;21.00;99.90;;;;;;7306053;32;20842;-56
2023/09/10 19:53:08;;;;;;;21.87;11.12;;;20.90;99.90;;;;;;7294868;32;20696;-57
2023/09/10 19:57:09;;;;;;;13.25;10.70;;;20.90;99.90;;;;;;7290196;32;20426;-56
2023/09/10 20:01:11;;;;;;;15.52;10.80;;;20.80;99.90;;;;;;7291784;32;20193;-56
2023/09/10 20:05:13;;;;;;;12.85;10.73;;;20.80;99.90;;;;;;7295001;32;20123;-57
2023/09/10 20:09:15;;;;;;;15.05;9.85;;;20.80;99.90;;;;;;7291855;32;20231;-56
2023/09/10 20:13:17;;;;;;;12.35;9.52;;;20.70;99.90;;;;;;7302231;32;20725;-57
2023/09/10 20:17:19;;;;;;;14.80;10.85;;;20.60;99.90;;;;;;7279617;32;20543;-57
2023/09/10 20:21:21;;;;;;;15.52;10.55;;;20.60;99.90;;;;;;7301058;32;20160;-56
2023/09/10 20:25:23;;;;;;;11.77;10.18;;;20.50;99.90;;;;;;7298601;32;20525;-56
2023/09/10 20:29:25;;;;;;;14.02;10.15;;;20.50;99.90;;;;;;7302036;32;20509;-56
2023/09/10 20:33:27;;;;;;;13.73;10.15;;;20.50;99.90;;;;;;7306591;32;20183;-56
2023/09/10 20:37:29;;;;;;;15.15;10.05;;;20.40;99.90;;;;;;7304538;32;20493;-57
2023/09/10 20:41:31;;;;;;;15.75;11.00;;;20.40;99.90;;;;;;7301127;32;20175;-56